sensor_id;sensor_type;location;lat;lon;timestamp;pressure;altitude;pressure_sealevel;temperature;humidity
8697;BME280;4385;48.848;8.924;2024-02-23T00:01:26;95413.28;;;17.72;100.00
8697;BME280;4385;48.848;8.924;2024-02-23T00:03:51;95411.63;;;17.71;100.00
8697;BME280;4385;48.848;8.924;2024-02-23T00:06:16;95413.28;;;17.72;100.00
8697;BME280;4385;48.848;8.924;2024-02-23T00:08:42;95418.38;;;17.72;100.00
8697;BME280;4385;48.848;8.924;2024-02-23T00:11:07;95413.28;;;17.72;100.00
8697;BME280;4385;48.848;8.924;2024-02-23T00:13:33;95413.44;;;17.69;100.00
8697;BME280;4385;48.848;8.924;2024-02-23T00:15:58;95399.78;;;17.70;100.00
8697;BME280;4385;48.848;8.924;2024-02-23T00:18:23;95400.53;;;17.72;100.00
8697;BME280;4385;48.848;8.924;2024-02-23T00:20:49;95403.97;;;17.71;100.00
8697;BME280;4385;48.848;8.924;2024-02-23T00:23:14;95417.78;;;17.67;100.00
8697;BME280;4385;48.848;8.924;2024-02-23T00:25:39;95413.69;;;17.64;100.00
8697;BME280;4385;48.848;8.924;2024-02-23T00:28:05;95410.38;;;17.62;100.00
8697;BME280;4385;48.848;8.924;2024-02-23T00:30:30;95436.69;;;17.63;100.00
8697;BME280;4385;48.848;8.924;2024-02-23T00:32:56;95446.94;;;17.61;100.00
8697;BME280;4385;48.848;8.924;2024-02-23T00:35:21;95455.38;;;17.62;100.00
8697;BME280;4385;48.848;8.924;2024-02-23T00:37:46;95468.13;;;17.62;100.00
8697;BME280;4385;48.848;8.924;2024-02-23T00:40:12;95458.84;;;17.61;100.00
8697;BME280;4385;48.848;8.924;2024-02-23T00:42:37;95463.09;;;17.60;100.00
8697;BME280;4385;48.848;8.924;2024-02-23T00:45:03;95459.75;;;17.60;100.00
8697;BME280;4385;48.848;8.924;2024-02-23T00:47:28;95469.09;;;17.59;100.00
8697;BME280;4385;48.848;8.924;2024-02-23T00:49:53;95459.84;;;17.58;100.00
8697;BME280;4385;48.848;8.924;2024-02-23T00:52:19;95458.09;;;17.58;100.00
8697;BME280;4385;48.848;8.924;2024-02-23T00:54:44;95470.09;;;17.56;100.00
8697;BME280;4385;48.848;8.924;2024-02-23T00:57:10;95479.38;;;17.57;100.00
8697;BME280;4385;48.848;8.924;2024-02-23T00:59:35;95487.00;;;17.57;100.00
8697;BME280;4385;48.848;8.924;2024-02-23T01:02:00;95496.34;;;17.57;100.00
8697;BME280;4385;48.848;8.924;2024-02-23T01:04:26;95488.81;;;17.55;100.00
8697;BME280;4385;48.848;8.924;2024-02-23T01:06:51;95484.53;;;17.56;100.00
8697;BME280;4385;48.848;8.924;2024-02-23T01:09:16;95492.25;;;17.54;100.00
8697;BME280;4385;48.848;8.924;2024-02-23T01:11:45;95490.53;;;17.55;100.00
8697;BME280;4385;48.848;8.924;2024-02-23T01:14:10;95487.16;;;17.54;100.00
8697;BME280;4385;48.848;8.924;2024-02-23T01:16:36;95474.44;;;17.54;100.00
8697;BME280;4385;48.848;8.924;2024-02-23T01:19:01;95465.16;;;17.53;100.00
8697;BME280;4385;48.848;8.924;2024-02-23T01:21:28;95463.50;;;17.52;100.00
8697;BME280;4385;48.848;8.924;2024-02-23T01:23:53;95477.88;;;17.53;100.00
8697;BME280;4385;48.848;8.924;2024-02-23T01:26:19;95495.72;;;17.53;100.00
8697;BME280;4385;48.848;8.924;2024-02-23T01:28:44;95480.44;;;17.53;100.00
8697;BME280;4385;48.848;8.924;2024-02-23T01:31:10;95493.16;;;17.53;100.00
8697;BME280;4385;48.848;8.924;2024-02-23T01:33:37;95495.88;;;17.50;100.00
8697;BME280;4385;48.848;8.924;2024-02-23T01:36:04;95497.66;;;17.48;100.00
8697;BME280;4385;48.848;8.924;2024-02-23T01:38:30;95507.84;;;17.48;100.00
8697;BME280;4385;48.848;8.924;2024-02-23T01:40:57;95511.28;;;17.47;100.00
8697;BME280;4385;48.848;8.924;2024-02-23T01:43:22;95514.66;;;17.48;100.00
8697;BME280;4385;48.848;8.924;2024-02-23T01:45:48;95521.47;;;17.47;100.00
8697;BME280;4385;48.848;8.924;2024-02-23T01:48:13;95529.13;;;17.47;100.00
8697;BME280;4385;48.848;8.924;2024-02-23T01:50:39;95522.34;;;17.46;100.00
8697;BME280;4385;48.848;8.924;2024-02-23T01:53:05;95532.53;;;17.46;100.00
8697;BME280;4385;48.848;8.924;2024-02-23T01:55:30;95533.38;;;17.47;100.00
8697;BME280;4385;48.848;8.924;2024-02-23T01:57:57;95542.66;;;17.48;100.00
8697;BME280;4385;48.848;8.924;2024-02-23T02:00:23;95532.47;;;17.48;100.00
8697;BME280;4385;48.848;8.924;2024-02-23T02:02:49;95531.66;;;17.47;100.00
8697;BME280;4385;48.848;8.924;2024-02-23T02:05:14;95533.38;;;17.47;100.00
8697;BME280;4385;48.848;8.924;2024-02-23T02:07:40;95535.91;;;17.47;100.00
8697;BME280;4385;48.848;8.924;2024-02-23T02:10:08;95532.63;;;17.44;100.00
8697;BME280;4385;48.848;8.924;2024-02-23T02:12:34;95532.63;;;17.44;100.00
8697;BME280;4385;48.848;8.924;2024-02-23T02:14:59;95542.81;;;17.44;100.00
8697;BME280;4385;48.848;8.924;2024-02-23T02:17:27;95543.78;;;17.42;100.00
8697;BME280;4385;48.848;8.924;2024-02-23T02:19:52;95539.59;;;17.41;100.00
8697;BME280;4385;48.848;8.924;2024-02-23T02:22:18;95540.47;;;17.40;100.00
8697;BME280;4385;48.848;8.924;2024-02-23T02:24:43;95540.47;;;17.40;100.00
8697;BME280;4385;48.848;8.924;2024-02-23T02:27:11;95545.72;;;17.37;100.00
8697;BME280;4385;48.848;8.924;2024-02-23T02:29:36;95541.47;;;17.37;100.00
8697;BME280;4385;48.848;8.924;2024-02-23T02:32:02;95549.94;;;17.38;100.00
8697;BME280;4385;48.848;8.924;2024-02-23T02:34:27;95537.22;;;17.38;100.00
8697;BME280;4385;48.848;8.924;2024-02-23T02:36:54;95535.53;;;17.37;100.00
8697;BME280;4385;48.848;8.924;2024-02-23T02:39:19;95539.91;;;17.35;100.00
8697;BME280;4385;48.848;8.924;2024-02-23T02:41:45;95533.91;;;17.36;100.00
8697;BME280;4385;48.848;8.924;2024-02-23T02:44:10;95526.34;;;17.34;100.00
8697;BME280;4385;48.848;8.924;2024-02-23T02:46:35;95523.88;;;17.32;100.00
8697;BME280;4385;48.848;8.924;2024-02-23T02:49:02;95527.31;;;17.31;100.00
8697;BME280;4385;48.848;8.924;2024-02-23T02:51:27;95514.53;;;17.33;100.00
8697;BME280;4385;48.848;8.924;2024-02-23T02:53:52;95523.88;;;17.32;100.00
8697;BME280;4385;48.848;8.924;2024-02-23T02:56:18;95518.78;;;17.32;100.00
8697;BME280;4385;48.848;8.924;2024-02-23T02:58:43;95535.69;;;17.33;100.00
8697;BME280;4385;48.848;8.924;2024-02-23T03:01:08;95538.25;;;17.33;100.00
8697;BME280;4385;48.848;8.924;2024-02-23T03:03:34;95527.31;;;17.31;100.00
8697;BME280;4385;48.848;8.924;2024-02-23T03:05:59;95534.97;;;17.31;100.00
8697;BME280;4385;48.848;8.924;2024-02-23T03:08:25;95532.41;;;17.31;100.00
8697;BME280;4385;48.848;8.924;2024-02-23T03:10:51;95527.41;;;17.30;100.00
8697;BME280;4385;48.848;8.924;2024-02-23T03:13:16;95524.84;;;17.30;100.00
8697;BME280;4385;48.848;8.924;2024-02-23T03:15:42;95527.41;;;17.30;100.00
8697;BME280;4385;48.848;8.924;2024-02-23T03:18:08;95529.13;;;17.29;100.00
8697;BME280;4385;48.848;8.924;2024-02-23T03:20:35;95517.28;;;17.28;100.00
8697;BME280;4385;48.848;8.924;2024-02-23T03:23:00;95502.97;;;17.26;100.00
8697;BME280;4385;48.848;8.924;2024-02-23T03:25:28;95520.00;;;17.25;100.00
8697;BME280;4385;48.848;8.924;2024-02-23T03:27:54;95517.44;;;17.25;100.00
8697;BME280;4385;48.848;8.924;2024-02-23T03:30:19;95511.53;;;17.25;100.00
8697;BME280;4385;48.848;8.924;2024-02-23T03:32:44;95520.88;;;17.24;100.00
8697;BME280;4385;48.848;8.924;2024-02-23T03:35:12;95528.56;;;17.23;100.00
8697;BME280;4385;48.848;8.924;2024-02-23T03:37:37;95526.09;;;17.21;100.00
8697;BME280;4385;48.848;8.924;2024-02-23T03:40:04;95520.22;;;17.20;100.00
8697;BME280;4385;48.848;8.924;2024-02-23T03:42:30;95512.66;;;17.19;100.00
8697;BME280;4385;48.848;8.924;2024-02-23T03:44:55;95523.72;;;17.18;100.00
8697;BME280;4385;48.848;8.924;2024-02-23T03:47:20;95528.81;;;17.18;100.00
8697;BME280;4385;48.848;8.924;2024-02-23T03:49:45;95524.63;;;17.17;100.00
8697;BME280;4385;48.848;8.924;2024-02-23T03:52:11;95520.44;;;17.16;100.00
8697;BME280;4385;48.848;8.924;2024-02-23T03:54:37;95533.16;;;17.16;100.00
8697;BME280;4385;48.848;8.924;2024-02-23T03:57:02;95533.97;;;17.16;100.00
8697;BME280;4385;48.848;8.924;2024-02-23T03:59:28;95539.06;;;17.16;100.00
8697;BME280;4385;48.848;8.924;2024-02-23T04:01:54;95550.91;;;17.17;100.00
8697;BME280;4385;48.848;8.924;2024-02-23T04:04:19;95544.06;;;17.18;100.00
8697;BME280;4385;48.848;8.924;2024-02-23T04:06:44;95539.88;;;17.17;100.00
8697;BME280;4385;48.848;8.924;2024-02-23T04:09:09;95528.00;;;17.17;100.00
8697;BME280;4385;48.848;8.924;2024-02-23T04:11:35;95526.25;;;17.18;100.00
8697;BME280;4385;48.848;8.924;2024-02-23T04:14:00;95529.56;;;17.20;100.00
8697;BME280;4385;48.848;8.924;2024-02-23T04:16:26;95532.09;;;17.20;100.00
8697;BME280;4385;48.848;8.924;2024-02-23T04:18:51;95530.47;;;17.19;100.00
8697;BME280;4385;48.848;8.924;2024-02-23T04:21:16;95534.66;;;17.20;100.00
8697;BME280;4385;48.848;8.924;2024-02-23T04:23:43;95539.66;;;17.22;100.00
8697;BME280;4385;48.848;8.924;2024-02-23T04:26:08;95537.13;;;17.22;100.00
8697;BME280;4385;48.848;8.924;2024-02-23T04:28:34;95525.22;;;17.22;100.00
8697;BME280;4385;48.848;8.924;2024-02-23T04:30:59;95526.09;;;17.21;100.00
8697;BME280;4385;48.848;8.924;2024-02-23T04:33:25;95519.38;;;17.20;100.00
8697;BME280;4385;48.848;8.924;2024-02-23T04:35:51;95518.53;;;17.19;100.00
8697;BME280;4385;48.848;8.924;2024-02-23T04:38:16;95516.97;;;17.17;100.00
8697;BME280;4385;48.848;8.924;2024-02-23T04:40:41;95517.06;;;17.15;100.00
8697;BME280;4385;48.848;8.924;2024-02-23T04:43:07;95521.31;;;17.15;100.00
8697;BME280;4385;48.848;8.924;2024-02-23T04:45:32;95523.94;;;17.13;100.00
8697;BME280;4385;48.848;8.924;2024-02-23T04:47:57;95535.09;;;17.11;100.00
8697;BME280;4385;48.848;8.924;2024-02-23T04:50:23;95528.22;;;17.13;100.00
8697;BME280;4385;48.848;8.924;2024-02-23T04:52:48;95521.47;;;17.12;100.00
8697;BME280;4385;48.848;8.924;2024-02-23T04:55:14;95517.19;;;17.12;100.00
8697;BME280;4385;48.848;8.924;2024-02-23T04:57:40;95521.53;;;17.10;100.00
8697;BME280;4385;48.848;8.924;2024-02-23T05:00:05;95517.34;;;17.09;100.00
8697;BME280;4385;48.848;8.924;2024-02-23T05:02:32;95514.88;;;17.07;100.00
8697;BME280;4385;48.848;8.924;2024-02-23T05:05:06;95520.81;;;17.08;100.00
8697;BME280;4385;48.848;8.924;2024-02-23T05:07:33;95522.50;;;17.07;100.00
8697;BME280;4385;48.848;8.924;2024-02-23T05:09:59;95521.59;;;17.08;100.00
8697;BME280;4385;48.848;8.924;2024-02-23T05:12:24;95521.59;;;17.08;100.00
8697;BME280;4385;48.848;8.924;2024-02-23T05:14:49;95519.06;;;17.08;100.00
8697;BME280;4385;48.848;8.924;2024-02-23T05:17:15;95521.59;;;17.08;100.00
8697;BME280;4385;48.848;8.924;2024-02-23T05:19:40;95526.69;;;17.08;100.00
8697;BME280;4385;48.848;8.924;2024-02-23T05:22:05;95521.59;;;17.08;100.00
8697;BME280;4385;48.848;8.924;2024-02-23T05:24:31;95521.59;;;17.08;100.00
8697;BME280;4385;48.848;8.924;2024-02-23T05:26:56;95526.69;;;17.08;100.00
8697;BME280;4385;48.848;8.924;2024-02-23T05:29:23;95524.19;;;17.07;100.00
8697;BME280;4385;48.848;8.924;2024-02-23T05:31:51;95522.50;;;17.07;100.00
8697;BME280;4385;48.848;8.924;2024-02-23T05:34:17;95534.34;;;17.08;100.00
8697;BME280;4385;48.848;8.924;2024-02-23T05:36:43;95536.88;;;17.08;100.00
8697;BME280;4385;48.848;8.924;2024-02-23T05:39:09;95545.28;;;17.11;100.00
8697;BME280;4385;48.848;8.924;2024-02-23T05:41:35;95552.00;;;17.12;100.00
8697;BME280;4385;48.848;8.924;2024-02-23T05:44:02;95555.31;;;17.14;100.00
8697;BME280;4385;48.848;8.924;2024-02-23T05:46:29;95557.78;;;17.15;100.00
8697;BME280;4385;48.848;8.924;2024-02-23T05:48:54;95548.44;;;17.16;100.00
8697;BME280;4385;48.848;8.924;2024-02-23T05:51:19;95550.97;;;17.16;100.00
8697;BME280;4385;48.848;8.924;2024-02-23T05:53:44;95555.16;;;17.17;100.00
8697;BME280;4385;48.848;8.924;2024-02-23T05:56:10;95554.19;;;17.19;100.00
8697;BME280;4385;48.848;8.924;2024-02-23T05:58:35;95558.47;;;17.19;100.00
8697;BME280;4385;48.848;8.924;2024-02-23T06:01:01;95560.09;;;17.20;100.00
8697;BME280;4385;48.848;8.924;2024-02-23T06:03:27;95566.91;;;17.19;100.00
8697;BME280;4385;48.848;8.924;2024-02-23T06:05:52;95577.00;;;17.21;100.00
8697;BME280;4385;48.848;8.924;2024-02-23T06:08:19;95578.69;;;17.22;100.00
8697;BME280;4385;48.848;8.924;2024-02-23T06:10:44;95573.59;;;17.22;100.00
8697;BME280;4385;48.848;8.924;2024-02-23T06:13:10;95570.13;;;17.23;100.00
8697;BME280;4385;48.848;8.924;2024-02-23T06:15:35;95575.16;;;17.25;100.00
8697;BME280;4385;48.848;8.924;2024-02-23T06:18:00;95579.34;;;17.26;100.00
8697;BME280;4385;48.848;8.924;2024-02-23T06:20:25;95581.00;;;17.27;100.00
8697;BME280;4385;48.848;8.924;2024-02-23T06:22:51;95569.91;;;17.28;100.00
8697;BME280;4385;48.848;8.924;2024-02-23T06:25:16;95568.94;;;17.30;100.00
8697;BME280;4385;48.848;8.924;2024-02-23T06:27:41;95573.16;;;17.31;100.00
8697;BME280;4385;48.848;8.924;2024-02-23T06:30:07;95584.22;;;17.30;100.00
8697;BME280;4385;48.848;8.924;2024-02-23T06:32:33;95582.50;;;17.31;100.00
8697;BME280;4385;48.848;8.924;2024-02-23T06:34:58;95586.75;;;17.30;100.00
8697;BME280;4385;48.848;8.924;2024-02-23T06:37:23;95599.41;;;17.32;100.00
8697;BME280;4385;48.848;8.924;2024-02-23T06:39:49;95595.16;;;17.32;100.00
8697;BME280;4385;48.848;8.924;2024-02-23T06:42:19;95596.78;;;17.33;100.00
8697;BME280;4385;48.848;8.924;2024-02-23T06:44:45;95595.84;;;17.36;100.00
8697;BME280;4385;48.848;8.924;2024-02-23T06:47:10;95595.00;;;17.36;100.00
8697;BME280;4385;48.848;8.924;2024-02-23T06:49:35;95603.41;;;17.38;100.00
8697;BME280;4385;48.848;8.924;2024-02-23T06:52:00;95603.25;;;17.41;100.00
8697;BME280;4385;48.848;8.924;2024-02-23T06:54:26;95598.31;;;17.38;100.00
8697;BME280;4385;48.848;8.924;2024-02-23T06:56:51;95598.31;;;17.38;100.00
8697;BME280;4385;48.848;8.924;2024-02-23T06:59:16;95601.66;;;17.38;100.00
8697;BME280;4385;48.848;8.924;2024-02-23T07:01:51;95598.31;;;17.38;100.00
8697;BME280;4385;48.848;8.924;2024-02-23T07:04:17;95597.53;;;17.36;100.00
8697;BME280;4385;48.848;8.924;2024-02-23T07:06:42;95609.28;;;17.38;100.00
8697;BME280;4385;48.848;8.924;2024-02-23T07:09:08;95612.81;;;17.36;100.00
8697;BME280;4385;48.848;8.924;2024-02-23T07:11:33;95611.91;;;17.37;100.00
8697;BME280;4385;48.848;8.924;2024-02-23T07:13:59;95617.06;;;17.35;100.00
8697;BME280;4385;48.848;8.924;2024-02-23T07:16:24;95620.47;;;17.36;100.00
8697;BME280;4385;48.848;8.924;2024-02-23T07:18:49;95617.16;;;17.33;100.00
8697;BME280;4385;48.848;8.924;2024-02-23T07:21:17;95620.59;;;17.32;100.00
8697;BME280;4385;48.848;8.924;2024-02-23T07:23:43;95618.06;;;17.32;100.00
8697;BME280;4385;48.848;8.924;2024-02-23T07:26:08;95617.16;;;17.33;100.00
8697;BME280;4385;48.848;8.924;2024-02-23T07:28:33;95618.00;;;17.34;100.00
8697;BME280;4385;48.848;8.924;2024-02-23T07:30:58;95618.81;;;17.35;100.00
8697;BME280;4385;48.848;8.924;2024-02-23T07:33:24;95625.56;;;17.36;100.00
8697;BME280;4385;48.848;8.924;2024-02-23T07:35:49;95623.75;;;17.38;100.00
8697;BME280;4385;48.848;8.924;2024-02-23T07:38:14;95625.56;;;17.36;100.00
8697;BME280;4385;48.848;8.924;2024-02-23T07:40:39;95619.56;;;17.37;100.00
8697;BME280;4385;48.848;8.924;2024-02-23T07:43:05;95617.00;;;17.37;100.00
8697;BME280;4385;48.848;8.924;2024-02-23T07:45:30;95611.91;;;17.37;100.00
8697;BME280;4385;48.848;8.924;2024-02-23T07:47:56;95606.03;;;17.36;100.00
8697;BME280;4385;48.848;8.924;2024-02-23T07:50:21;95612.00;;;17.35;100.00
8697;BME280;4385;48.848;8.924;2024-02-23T07:52:46;95610.28;;;17.36;100.00
8697;BME280;4385;48.848;8.924;2024-02-23T07:55:12;95604.34;;;17.35;100.00
8697;BME280;4385;48.848;8.924;2024-02-23T07:57:37;95607.72;;;17.36;100.00
8697;BME280;4385;48.848;8.924;2024-02-23T08:00:05;95604.34;;;17.35;100.00
8697;BME280;4385;48.848;8.924;2024-02-23T08:02:32;95606.81;;;17.37;100.00
8697;BME280;4385;48.848;8.924;2024-02-23T08:04:57;95614.38;;;17.38;100.00
8697;BME280;4385;48.848;8.924;2024-02-23T08:07:22;95609.28;;;17.38;100.00
8697;BME280;4385;48.848;8.924;2024-02-23T08:09:48;95614.31;;;17.40;100.00
8697;BME280;4385;48.848;8.924;2024-02-23T08:12:13;95614.31;;;17.40;100.00
8697;BME280;4385;48.848;8.924;2024-02-23T08:14:38;95618.53;;;17.41;100.00
8697;BME280;4385;48.848;8.924;2024-02-23T08:17:04;95620.16;;;17.42;100.00
8697;BME280;4385;48.848;8.924;2024-02-23T08:19:30;95625.25;;;17.42;100.00
8697;BME280;4385;48.848;8.924;2024-02-23T08:21:55;95617.63;;;17.42;100.00
8697;BME280;4385;48.848;8.924;2024-02-23T08:24:20;95614.16;;;17.43;100.00
8697;BME280;4385;48.848;8.924;2024-02-23T08:26:46;95613.28;;;17.44;100.00
8697;BME280;4385;48.848;8.924;2024-02-23T08:29:11;95619.19;;;17.44;100.00
8697;BME280;4385;48.848;8.924;2024-02-23T08:31:36;95616.56;;;17.46;100.00
8697;BME280;4385;48.848;8.924;2024-02-23T08:34:01;95610.66;;;17.45;100.00
8697;BME280;4385;48.848;8.924;2024-02-23T08:36:27;95614.09;;;17.44;100.00
8697;BME280;4385;48.848;8.924;2024-02-23T08:38:52;95604.75;;;17.45;100.00
8697;BME280;4385;48.848;8.924;2024-02-23T08:41:17;95596.28;;;17.44;100.00
8697;BME280;4385;48.848;8.924;2024-02-23T08:43:43;95578.53;;;17.43;100.00
8697;BME280;4385;48.848;8.924;2024-02-23T08:46:08;95587.00;;;17.43;100.00
8697;BME280;4385;48.848;8.924;2024-02-23T08:48:33;95570.88;;;17.43;100.00
8697;BME280;4385;48.848;8.924;2024-02-23T08:50:59;95572.56;;;17.44;100.00
8697;BME280;4385;48.848;8.924;2024-02-23T08:53:24;95575.09;;;17.44;100.00
8697;BME280;4385;48.848;8.924;2024-02-23T08:55:49;95574.19;;;17.45;100.00
8697;BME280;4385;48.848;8.924;2024-02-23T08:58:14;95570.88;;;17.43;100.00
8697;BME280;4385;48.848;8.924;2024-02-23T09:00:39;95577.66;;;17.44;100.00
8697;BME280;4385;48.848;8.924;2024-02-23T09:03:05;95574.25;;;17.43;100.00
8697;BME280;4385;48.848;8.924;2024-02-23T09:05:30;95580.13;;;17.45;100.00
8697;BME280;4385;48.848;8.924;2024-02-23T09:07:55;95578.38;;;17.46;100.00
8697;BME280;4385;48.848;8.924;2024-02-23T09:10:21;95590.22;;;17.47;100.00
8697;BME280;4385;48.848;8.924;2024-02-23T09:12:46;95602.13;;;17.47;100.00
8697;BME280;4385;48.848;8.924;2024-02-23T09:15:12;95606.22;;;17.49;100.00
8697;BME280;4385;48.848;8.924;2024-02-23T09:17:37;95604.53;;;17.50;100.00
8697;BME280;4385;48.848;8.924;2024-02-23T09:20:02;95602.81;;;17.50;100.00
8697;BME280;4385;48.848;8.924;2024-02-23T09:22:28;95611.19;;;17.52;100.00
8697;BME280;4385;48.848;8.924;2024-02-23T09:24:53;95607.75;;;17.53;100.00
8697;BME280;4385;48.848;8.924;2024-02-23T09:27:21;95608.56;;;17.54;100.00
8697;BME280;4385;48.848;8.924;2024-02-23T09:29:47;95595.81;;;17.54;100.00
8697;BME280;4385;48.848;8.924;2024-02-23T09:32:12;95601.75;;;17.54;100.00
8697;BME280;4385;48.848;8.924;2024-02-23T09:34:37;95606.84;;;17.54;100.00
8697;BME280;4385;48.848;8.924;2024-02-23T09:37:03;95602.66;;;17.53;100.00
8697;BME280;4385;48.848;8.924;2024-02-23T09:39:28;95598.28;;;17.55;100.00
8697;BME280;4385;48.848;8.924;2024-02-23T09:41:56;95600.84;;;17.55;100.00
8697;BME280;4385;48.848;8.924;2024-02-23T09:44:27;95609.31;;;17.56;100.00
8697;BME280;4385;48.848;8.924;2024-02-23T09:46:57;95605.06;;;17.56;100.00
8697;BME280;4385;48.848;8.924;2024-02-23T09:49:22;95604.16;;;17.57;100.00
8697;BME280;4385;48.848;8.924;2024-02-23T09:51:48;95603.31;;;17.57;100.00
8697;BME280;4385;48.848;8.924;2024-02-23T09:54:14;95615.25;;;17.56;100.00
8697;BME280;4385;48.848;8.924;2024-02-23T09:56:39;95622.06;;;17.56;100.00
8697;BME280;4385;48.848;8.924;2024-02-23T09:59:04;95616.97;;;17.56;100.00
8697;BME280;4385;48.848;8.924;2024-02-23T10:01:31;95616.88;;;17.57;100.00
8697;BME280;4385;48.848;8.924;2024-02-23T10:03:58;95621.97;;;17.57;100.00
8697;BME280;4385;48.848;8.924;2024-02-23T10:06:27;95624.53;;;17.57;100.00
8697;BME280;4385;48.848;8.924;2024-02-23T10:08:53;95627.13;;;17.56;100.00
8697;BME280;4385;48.848;8.924;2024-02-23T10:11:21;95622.06;;;17.56;100.00
8697;BME280;4385;48.848;8.924;2024-02-23T10:13:50;95617.78;;;17.56;100.00
8697;BME280;4385;48.848;8.924;2024-02-23T10:16:17;95622.88;;;17.56;100.00
8697;BME280;4385;48.848;8.924;2024-02-23T10:18:42;95616.88;;;17.57;100.00
8697;BME280;4385;48.848;8.924;2024-02-23T10:21:08;95621.91;;;17.59;100.00
8697;BME280;4385;48.848;8.924;2024-02-23T10:23:33;95622.72;;;17.60;100.00
8697;BME280;4385;48.848;8.924;2024-02-23T10:25:59;95641.28;;;17.62;100.00
8697;BME280;4385;48.848;8.924;2024-02-23T10:28:24;95632.00;;;17.61;100.00
8697;BME280;4385;48.848;8.924;2024-02-23T10:30:49;95634.50;;;17.62;100.00
8697;BME280;4385;48.848;8.924;2024-02-23T10:33:15;95636.28;;;17.60;100.00
8697;BME280;4385;48.848;8.924;2024-02-23T10:35:41;95638.00;;;17.60;100.00
8697;BME280;4385;48.848;8.924;2024-02-23T10:38:08;95627.81;;;17.60;100.00
8697;BME280;4385;48.848;8.924;2024-02-23T10:40:39;95637.25;;;17.57;100.00
8697;BME280;4385;48.848;8.924;2024-02-23T10:43:10;95632.31;;;17.54;100.00
8697;BME280;4385;48.848;8.924;2024-02-23T10:45:38;95639.94;;;17.54;100.00
8697;BME280;4385;48.848;8.924;2024-02-23T10:48:06;95627.22;;;17.54;100.00
8697;BME280;4385;48.848;8.924;2024-02-23T10:50:33;95625.44;;;17.56;100.00
8697;BME280;4385;48.848;8.924;2024-02-23T10:53:00;95622.88;;;17.56;100.00
8697;BME280;4385;48.848;8.924;2024-02-23T10:55:26;95633.06;;;17.56;100.00
8697;BME280;4385;48.848;8.924;2024-02-23T10:57:53;95627.06;;;17.57;100.00
8697;BME280;4385;48.848;8.924;2024-02-23T11:00:21;95626.16;;;17.58;100.00
8697;BME280;4385;48.848;8.924;2024-02-23T11:02:50;95623.69;;;17.57;100.00
8697;BME280;4385;48.848;8.924;2024-02-23T11:05:16;95628.78;;;17.57;100.00
8697;BME280;4385;48.848;8.924;2024-02-23T11:07:46;95615.97;;;17.58;100.00
8697;BME280;4385;48.848;8.924;2024-02-23T11:10:15;95613.44;;;17.58;100.00
8697;BME280;4385;48.848;8.924;2024-02-23T11:12:40;95607.47;;;17.60;100.00
8697;BME280;4385;48.848;8.924;2024-02-23T11:15:06;95606.53;;;17.61;100.00
8697;BME280;4385;48.848;8.924;2024-02-23T11:17:32;95601.38;;;17.62;100.00
8697;BME280;4385;48.848;8.924;2024-02-23T11:19:58;95602.94;;;17.65;100.00
8697;BME280;4385;48.848;8.924;2024-02-23T11:22:24;95607.16;;;17.66;100.00
8697;BME280;4385;48.848;8.924;2024-02-23T11:24:51;95609.69;;;17.66;100.00
8697;BME280;4385;48.848;8.924;2024-02-23T11:27:16;95605.34;;;17.68;100.00
8697;BME280;4385;48.848;8.924;2024-02-23T11:29:45;95603.63;;;17.68;100.00
8697;BME280;4385;48.848;8.924;2024-02-23T11:32:17;95610.28;;;17.71;100.00
8697;BME280;4385;48.848;8.924;2024-02-23T11:34:56;95613.59;;;17.73;100.00
8697;BME280;4385;48.848;8.924;2024-02-23T11:37:28;95618.69;;;17.73;100.00
8697;BME280;4385;48.848;8.924;2024-02-23T11:39:53;95608.50;;;17.73;100.00
8697;BME280;4385;48.848;8.924;2024-02-23T11:42:19;95608.50;;;17.73;100.00
8697;BME280;4385;48.848;8.924;2024-02-23T11:44:45;95605.19;;;17.71;100.00
8697;BME280;4385;48.848;8.924;2024-02-23T11:47:10;95607.66;;;17.73;100.00
8697;BME280;4385;48.848;8.924;2024-02-23T11:49:35;95605.94;;;17.73;100.00
8697;BME280;4385;48.848;8.924;2024-02-23T11:52:00;95603.25;;;17.76;100.00
8697;BME280;4385;48.848;8.924;2024-02-23T11:54:26;95605.72;;;17.78;100.00
8697;BME280;4385;48.848;8.924;2024-02-23T11:56:51;95601.53;;;17.77;100.00
8697;BME280;4385;48.848;8.924;2024-02-23T11:59:19;95596.38;;;17.78;100.00
8697;BME280;4385;48.848;8.924;2024-02-23T12:01:46;95587.97;;;17.76;100.00
8697;BME280;4385;48.848;8.924;2024-02-23T12:04:12;95581.22;;;17.75;100.00
8697;BME280;4385;48.848;8.924;2024-02-23T12:06:39;95579.50;;;17.76;100.00
8697;BME280;4385;48.848;8.924;2024-02-23T12:09:05;95576.94;;;17.76;100.00
8697;BME280;4385;48.848;8.924;2024-02-23T12:11:30;95571.84;;;17.76;100.00
8697;BME280;4385;48.848;8.924;2024-02-23T12:13:56;95571.03;;;17.75;100.00
8697;BME280;4385;48.848;8.924;2024-02-23T12:16:22;95572.59;;;17.78;100.00
8697;BME280;4385;48.848;8.924;2024-02-23T12:18:53;95578.38;;;17.81;100.00
8697;BME280;4385;48.848;8.924;2024-02-23T12:21:20;95575.06;;;17.79;100.00
8697;BME280;4385;48.848;8.924;2024-02-23T12:23:48;95577.63;;;17.79;100.00
8697;BME280;4385;48.848;8.924;2024-02-23T12:26:16;95569.22;;;17.77;100.00
8697;BME280;4385;48.848;8.924;2024-02-23T12:28:41;95574.25;;;17.79;100.00
8697;BME280;4385;48.848;8.924;2024-02-23T12:31:07;95567.44;;;17.79;100.00
8697;BME280;4385;48.848;8.924;2024-02-23T12:33:34;95562.34;;;17.79;100.00
8697;BME280;4385;48.848;8.924;2024-02-23T12:36:00;95573.34;;;17.80;100.00
8697;BME280;4385;48.848;8.924;2024-02-23T12:38:26;95577.63;;;17.79;100.00
8697;BME280;4385;48.848;8.924;2024-02-23T12:40:51;95572.59;;;17.78;100.00
8697;BME280;4385;48.848;8.924;2024-02-23T12:43:17;95577.78;;;17.76;100.00
8697;BME280;4385;48.848;8.924;2024-02-23T12:45:43;95575.16;;;17.78;100.00
8697;BME280;4385;48.848;8.924;2024-02-23T12:48:14;95576.88;;;17.77;100.00
8697;BME280;4385;48.848;8.924;2024-02-23T12:50:39;95575.22;;;17.76;100.00
8697;BME280;4385;48.848;8.924;2024-02-23T12:53:04;95577.78;;;17.76;100.00
8697;BME280;4385;48.848;8.924;2024-02-23T12:55:29;95572.75;;;17.75;100.00
8697;BME280;4385;48.848;8.924;2024-02-23T12:57:55;95574.47;;;17.74;100.00
8697;BME280;4385;48.848;8.924;2024-02-23T13:00:20;95575.31;;;17.75;100.00
8697;BME280;4385;48.848;8.924;2024-02-23T13:02:46;95574.47;;;17.74;100.00